sensor_id;sensor_type;location;lat;lon;timestamp;P1;durP1;ratioP1;P2;durP2;ratioP2
54815;SDS011;40715;55.752;37.884;2022-09-27T00:01:17;0.00;;;0.00;;
54815;SDS011;40715;55.752;37.884;2022-09-27T00:03:44;0.00;;;0.00;;
54815;SDS011;40715;55.752;37.884;2022-09-27T00:06:15;0.00;;;0.00;;
54815;SDS011;40715;55.752;37.884;2022-09-27T00:08:47;0.00;;;0.00;;
54815;SDS011;40715;55.752;37.884;2022-09-27T00:11:23;0.00;;;0.00;;
54815;SDS011;40715;55.752;37.884;2022-09-27T00:13:51;0.00;;;0.00;;
54815;SDS011;40715;55.752;37.884;2022-09-27T00:16:21;0.00;;;0.00;;
54815;SDS011;40715;55.752;37.884;2022-09-27T00:18:50;0.00;;;0.00;;
54815;SDS011;40715;55.752;37.884;2022-09-27T00:21:17;0.17;;;0.00;;
54815;SDS011;40715;55.752;37.884;2022-09-27T00:23:44;0.00;;;0.00;;
54815;SDS011;40715;55.752;37.884;2022-09-27T00:26:12;0.00;;;0.00;;
54815;SDS011;40715;55.752;37.884;2022-09-27T00:28:39;0.00;;;0.00;;
54815;SDS011;40715;55.752;37.884;2022-09-27T00:33:51;0.00;;;0.00;;
54815;SDS011;40715;55.752;37.884;2022-09-27T00:36:19;0.00;;;0.00;;
54815;SDS011;40715;55.752;37.884;2022-09-27T00:38:49;0.00;;;0.00;;
54815;SDS011;40715;55.752;37.884;2022-09-27T00:41:20;0.00;;;0.00;;
54815;SDS011;40715;55.752;37.884;2022-09-27T00:46:40;0.00;;;0.00;;
54815;SDS011;40715;55.752;37.884;2022-09-27T00:49:16;0.00;;;0.00;;
54815;SDS011;40715;55.752;37.884;2022-09-27T00:51:50;0.00;;;0.00;;
54815;SDS011;40715;55.752;37.884;2022-09-27T00:54:22;0.00;;;0.00;;
54815;SDS011;40715;55.752;37.884;2022-09-27T00:56:51;0.03;;;0.00;;
54815;SDS011;40715;55.752;37.884;2022-09-27T00:59:22;0.00;;;0.00;;
54815;SDS011;40715;55.752;37.884;2022-09-27T01:01:55;0.00;;;0.00;;
54815;SDS011;40715;55.752;37.884;2022-09-27T01:04:23;0.00;;;0.00;;
54815;SDS011;40715;55.752;37.884;2022-09-27T01:06:53;0.00;;;0.00;;
54815;SDS011;40715;55.752;37.884;2022-09-27T01:09:20;0.00;;;0.00;;
54815;SDS011;40715;55.752;37.884;2022-09-27T01:34:53;0.00;;;0.00;;
54815;SDS011;40715;55.752;37.884;2022-09-27T01:44:59;0.00;;;0.00;;
54815;SDS011;40715;55.752;37.884;2022-09-27T01:47:41;0.00;;;0.00;;
54815;SDS011;40715;55.752;37.884;2022-09-27T01:50:25;0.00;;;0.00;;
54815;SDS011;40715;55.752;37.884;2022-09-27T01:53:02;0.00;;;0.00;;
54815;SDS011;40715;55.752;37.884;2022-09-27T01:55:35;0.00;;;0.00;;
54815;SDS011;40715;55.752;37.884;2022-09-27T01:58:11;0.00;;;0.00;;
54815;SDS011;40715;55.752;37.884;2022-09-27T02:00:43;0.00;;;0.00;;
54815;SDS011;40715;55.752;37.884;2022-09-27T02:03:19;0.00;;;0.00;;
54815;SDS011;40715;55.752;37.884;2022-09-27T02:05:50;0.00;;;0.00;;
54815;SDS011;40715;55.752;37.884;2022-09-27T02:08:33;0.00;;;0.00;;
54815;SDS011;40715;55.752;37.884;2022-09-27T02:11:07;0.00;;;0.00;;
54815;SDS011;40715;55.752;37.884;2022-09-27T02:16:27;0.00;;;0.00;;
54815;SDS011;40715;55.752;37.884;2022-09-27T02:19:06;0.00;;;0.00;;
54815;SDS011;40715;55.752;37.884;2022-09-27T02:21:49;0.00;;;0.00;;
54815;SDS011;40715;55.752;37.884;2022-09-27T02:24:37;0.00;;;0.00;;
54815;SDS011;40715;55.752;37.884;2022-09-27T02:27:16;0.00;;;0.00;;
54815;SDS011;40715;55.752;37.884;2022-09-27T02:30:21;0.00;;;0.00;;
54815;SDS011;40715;55.752;37.884;2022-09-27T02:32:41;0.00;;;0.00;;
54815;SDS011;40715;55.752;37.884;2022-09-27T02:35:11;0.00;;;0.00;;
54815;SDS011;40715;55.752;37.884;2022-09-27T02:37:42;0.00;;;0.00;;
54815;SDS011;40715;55.752;37.884;2022-09-27T02:40:10;0.00;;;0.00;;
54815;SDS011;40715;55.752;37.884;2022-09-27T02:42:37;0.00;;;0.00;;
54815;SDS011;40715;55.752;37.884;2022-09-27T02:45:04;0.00;;;0.00;;
54815;SDS011;40715;55.752;37.884;2022-09-27T02:56:46;0.00;;;0.00;;
54815;SDS011;40715;55.752;37.884;2022-09-27T02:59:28;0.00;;;0.00;;
54815;SDS011;40715;55.752;37.884;2022-09-27T03:05:02;0.00;;;0.00;;
54815;SDS011;40715;55.752;37.884;2022-09-27T03:07:32;0.00;;;0.00;;
54815;SDS011;40715;55.752;37.884;2022-09-27T03:10:00;0.00;;;0.00;;
54815;SDS011;40715;55.752;37.884;2022-09-27T03:12:28;0.00;;;0.00;;
54815;SDS011;40715;55.752;37.884;2022-09-27T03:14:56;0.00;;;0.00;;
54815;SDS011;40715;55.752;37.884;2022-09-27T03:17:25;0.00;;;0.00;;
54815;SDS011;40715;55.752;37.884;2022-09-27T03:19:52;0.00;;;0.00;;
54815;SDS011;40715;55.752;37.884;2022-09-27T03:22:19;0.00;;;0.00;;
54815;SDS011;40715;55.752;37.884;2022-09-27T03:24:46;0.00;;;0.00;;
54815;SDS011;40715;55.752;37.884;2022-09-27T03:27:13;0.00;;;0.00;;
54815;SDS011;40715;55.752;37.884;2022-09-27T03:29:40;0.00;;;0.00;;
54815;SDS011;40715;55.752;37.884;2022-09-27T03:32:07;0.00;;;0.00;;
54815;SDS011;40715;55.752;37.884;2022-09-27T03:34:34;0.00;;;0.00;;
54815;SDS011;40715;55.752;37.884;2022-09-27T03:37:01;0.00;;;0.00;;
54815;SDS011;40715;55.752;37.884;2022-09-27T03:39:28;0.00;;;0.00;;
54815;SDS011;40715;55.752;37.884;2022-09-27T03:41:54;0.00;;;0.00;;
54815;SDS011;40715;55.752;37.884;2022-09-27T03:44:22;0.00;;;0.00;;
54815;SDS011;40715;55.752;37.884;2022-09-27T03:46:49;0.00;;;0.00;;
54815;SDS011;40715;55.752;37.884;2022-09-27T03:49:16;0.00;;;0.00;;
54815;SDS011;40715;55.752;37.884;2022-09-27T03:51:43;0.00;;;0.00;;
54815;SDS011;40715;55.752;37.884;2022-09-27T03:54:10;0.00;;;0.00;;
54815;SDS011;40715;55.752;37.884;2022-09-27T03:56:37;0.00;;;0.00;;
54815;SDS011;40715;55.752;37.884;2022-09-27T03:59:04;0.00;;;0.00;;
54815;SDS011;40715;55.752;37.884;2022-09-27T04:01:31;0.00;;;0.00;;
54815;SDS011;40715;55.752;37.884;2022-09-27T04:04:00;0.00;;;0.00;;
54815;SDS011;40715;55.752;37.884;2022-09-27T04:06:27;0.00;;;0.00;;
54815;SDS011;40715;55.752;37.884;2022-09-27T04:08:55;0.00;;;0.00;;
54815;SDS011;40715;55.752;37.884;2022-09-27T04:11:22;0.00;;;0.00;;
54815;SDS011;40715;55.752;37.884;2022-09-27T04:13:49;0.00;;;0.00;;
54815;SDS011;40715;55.752;37.884;2022-09-27T04:16:16;0.00;;;0.00;;
54815;SDS011;40715;55.752;37.884;2022-09-27T04:18:43;0.13;;;0.00;;
54815;SDS011;40715;55.752;37.884;2022-09-27T04:21:10;0.00;;;0.00;;
54815;SDS011;40715;55.752;37.884;2022-09-27T04:23:37;0.00;;;0.00;;
54815;SDS011;40715;55.752;37.884;2022-09-27T04:26:04;0.00;;;0.00;;
54815;SDS011;40715;55.752;37.884;2022-09-27T04:28:32;0.00;;;0.00;;
54815;SDS011;40715;55.752;37.884;2022-09-27T04:30:59;0.00;;;0.00;;
54815;SDS011;40715;55.752;37.884;2022-09-27T04:33:26;0.00;;;0.00;;
54815;SDS011;40715;55.752;37.884;2022-09-27T04:35:52;0.00;;;0.00;;
54815;SDS011;40715;55.752;37.884;2022-09-27T04:38:38;0.00;;;0.00;;
54815;SDS011;40715;55.752;37.884;2022-09-27T04:41:05;0.00;;;0.00;;
54815;SDS011;40715;55.752;37.884;2022-09-27T04:43:32;0.00;;;0.00;;
54815;SDS011;40715;55.752;37.884;2022-09-27T04:46:00;0.00;;;0.00;;
54815;SDS011;40715;55.752;37.884;2022-09-27T04:48:27;0.00;;;0.00;;
54815;SDS011;40715;55.752;37.884;2022-09-27T04:51:00;0.00;;;0.00;;
54815;SDS011;40715;55.752;37.884;2022-09-27T04:53:28;0.00;;;0.00;;
54815;SDS011;40715;55.752;37.884;2022-09-27T04:55:56;0.00;;;0.00;;
54815;SDS011;40715;55.752;37.884;2022-09-27T04:58:24;0.00;;;0.00;;
54815;SDS011;40715;55.752;37.884;2022-09-27T05:00:52;0.00;;;0.00;;
54815;SDS011;40715;55.752;37.884;2022-09-27T05:03:21;0.00;;;0.00;;
54815;SDS011;40715;55.752;37.884;2022-09-27T05:05:48;0.00;;;0.00;;
54815;SDS011;40715;55.752;37.884;2022-09-27T05:08:15;0.00;;;0.00;;
54815;SDS011;40715;55.752;37.884;2022-09-27T05:10:42;0.00;;;0.00;;
54815;SDS011;40715;55.752;37.884;2022-09-27T05:13:09;0.00;;;0.00;;
54815;SDS011;40715;55.752;37.884;2022-09-27T05:15:36;0.03;;;0.03;;
54815;SDS011;40715;55.752;37.884;2022-09-27T05:18:04;0.10;;;0.10;;
54815;SDS011;40715;55.752;37.884;2022-09-27T05:20:34;0.10;;;0.10;;
54815;SDS011;40715;55.752;37.884;2022-09-27T05:23:02;0.10;;;0.10;;
54815;SDS011;40715;55.752;37.884;2022-09-27T05:25:30;0.20;;;0.20;;
54815;SDS011;40715;55.752;37.884;2022-09-27T05:27:58;0.20;;;0.20;;
54815;SDS011;40715;55.752;37.884;2022-09-27T05:30:25;0.20;;;0.20;;
54815;SDS011;40715;55.752;37.884;2022-09-27T05:32:53;0.20;;;0.20;;
54815;SDS011;40715;55.752;37.884;2022-09-27T05:35:20;0.30;;;0.30;;
54815;SDS011;40715;55.752;37.884;2022-09-27T05:37:54;0.30;;;0.30;;
54815;SDS011;40715;55.752;37.884;2022-09-27T05:40:25;0.30;;;0.30;;
54815;SDS011;40715;55.752;37.884;2022-09-27T05:43:10;0.30;;;0.30;;
54815;SDS011;40715;55.752;37.884;2022-09-27T05:45:37;0.30;;;0.30;;
54815;SDS011;40715;55.752;37.884;2022-09-27T05:48:04;0.30;;;0.30;;
54815;SDS011;40715;55.752;37.884;2022-09-27T05:50:31;0.40;;;0.40;;
54815;SDS011;40715;55.752;37.884;2022-09-27T05:52:58;0.40;;;0.40;;
54815;SDS011;40715;55.752;37.884;2022-09-27T05:55:25;0.50;;;0.50;;
54815;SDS011;40715;55.752;37.884;2022-09-27T05:57:53;0.40;;;0.40;;
54815;SDS011;40715;55.752;37.884;2022-09-27T06:00:27;0.40;;;0.40;;
54815;SDS011;40715;55.752;37.884;2022-09-27T06:02:55;0.40;;;0.40;;
54815;SDS011;40715;55.752;37.884;2022-09-27T06:05:25;0.50;;;0.50;;
54815;SDS011;40715;55.752;37.884;2022-09-27T06:07:57;0.50;;;0.50;;
54815;SDS011;40715;55.752;37.884;2022-09-27T06:10:26;0.60;;;0.60;;
54815;SDS011;40715;55.752;37.884;2022-09-27T06:13:14;0.70;;;0.70;;
54815;SDS011;40715;55.752;37.884;2022-09-27T06:15:42;0.65;;;0.65;;
54815;SDS011;40715;55.752;37.884;2022-09-27T06:18:14;0.60;;;0.60;;
54815;SDS011;40715;55.752;37.884;2022-09-27T06:20:44;0.70;;;0.70;;
54815;SDS011;40715;55.752;37.884;2022-09-27T06:23:12;0.63;;;0.63;;
54815;SDS011;40715;55.752;37.884;2022-09-27T06:25:40;0.70;;;0.70;;
54815;SDS011;40715;55.752;37.884;2022-09-27T06:28:08;0.65;;;0.65;;
54815;SDS011;40715;55.752;37.884;2022-09-27T06:30:40;0.90;;;0.90;;
54815;SDS011;40715;55.752;37.884;2022-09-27T06:33:13;0.80;;;0.80;;
54815;SDS011;40715;55.752;37.884;2022-09-27T06:35:42;0.85;;;0.85;;
54815;SDS011;40715;55.752;37.884;2022-09-27T06:38:11;0.90;;;0.90;;
54815;SDS011;40715;55.752;37.884;2022-09-27T06:40:41;0.80;;;0.80;;
54815;SDS011;40715;55.752;37.884;2022-09-27T06:43:15;0.60;;;0.60;;
54815;SDS011;40715;55.752;37.884;2022-09-27T06:45:45;1.00;;;1.00;;
54815;SDS011;40715;55.752;37.884;2022-09-27T06:48:13;1.00;;;1.00;;
54815;SDS011;40715;55.752;37.884;2022-09-27T06:50:43;0.70;;;0.70;;
54815;SDS011;40715;55.752;37.884;2022-09-27T06:53:12;0.50;;;0.50;;
54815;SDS011;40715;55.752;37.884;2022-09-27T06:55:40;0.50;;;0.50;;
54815;SDS011;40715;55.752;37.884;2022-09-27T06:58:08;0.38;;;0.38;;
54815;SDS011;40715;55.752;37.884;2022-09-27T07:00:54;0.28;;;0.28;;
54815;SDS011;40715;55.752;37.884;2022-09-27T07:03:21;0.20;;;0.20;;
54815;SDS011;40715;55.752;37.884;2022-09-27T07:05:56;0.13;;;0.13;;
54815;SDS011;40715;55.752;37.884;2022-09-27T07:08:27;0.10;;;0.10;;
54815;SDS011;40715;55.752;37.884;2022-09-27T07:10:59;0.00;;;0.00;;
54815;SDS011;40715;55.752;37.884;2022-09-27T07:13:30;0.00;;;0.00;;
54815;SDS011;40715;55.752;37.884;2022-09-27T07:16:00;0.10;;;0.10;;
54815;SDS011;40715;55.752;37.884;2022-09-27T07:18:27;0.10;;;0.10;;
54815;SDS011;40715;55.752;37.884;2022-09-27T07:20:55;0.00;;;0.00;;
54815;SDS011;40715;55.752;37.884;2022-09-27T07:23:25;0.10;;;0.10;;
54815;SDS011;40715;55.752;37.884;2022-09-27T07:25:53;0.10;;;0.10;;
54815;SDS011;40715;55.752;37.884;2022-09-27T07:28:20;0.20;;;0.20;;
54815;SDS011;40715;55.752;37.884;2022-09-27T07:30:48;0.20;;;0.20;;
54815;SDS011;40715;55.752;37.884;2022-09-27T07:33:15;0.20;;;0.20;;
54815;SDS011;40715;55.752;37.884;2022-09-27T07:35:42;0.40;;;0.40;;
54815;SDS011;40715;55.752;37.884;2022-09-27T07:38:09;0.32;;;0.32;;
54815;SDS011;40715;55.752;37.884;2022-09-27T07:40:39;0.60;;;0.60;;
54815;SDS011;40715;55.752;37.884;2022-09-27T07:43:07;0.35;;;0.35;;
54815;SDS011;40715;55.752;37.884;2022-09-27T07:45:35;0.30;;;0.30;;
54815;SDS011;40715;55.752;37.884;2022-09-27T07:48:09;0.20;;;0.20;;
54815;SDS011;40715;55.752;37.884;2022-09-27T07:50:39;0.20;;;0.20;;
54815;SDS011;40715;55.752;37.884;2022-09-27T07:53:06;0.10;;;0.10;;
54815;SDS011;40715;55.752;37.884;2022-09-27T07:55:33;0.10;;;0.10;;
54815;SDS011;40715;55.752;37.884;2022-09-27T07:58:01;0.10;;;0.10;;
54815;SDS011;40715;55.752;37.884;2022-09-27T08:00:28;0.00;;;0.00;;
54815;SDS011;40715;55.752;37.884;2022-09-27T08:02:55;0.10;;;0.10;;
54815;SDS011;40715;55.752;37.884;2022-09-27T08:05:22;0.20;;;0.20;;
54815;SDS011;40715;55.752;37.884;2022-09-27T08:07:53;0.10;;;0.10;;
54815;SDS011;40715;55.752;37.884;2022-09-27T08:10:21;0.10;;;0.10;;
54815;SDS011;40715;55.752;37.884;2022-09-27T08:13:02;0.10;;;0.10;;
54815;SDS011;40715;55.752;37.884;2022-09-27T08:15:31;0.00;;;0.00;;
54815;SDS011;40715;55.752;37.884;2022-09-27T08:18:01;0.00;;;0.00;;
54815;SDS011;40715;55.752;37.884;2022-09-27T08:20:28;0.00;;;0.00;;
54815;SDS011;40715;55.752;37.884;2022-09-27T08:22:55;0.00;;;0.00;;
54815;SDS011;40715;55.752;37.884;2022-09-27T08:25:22;0.00;;;0.00;;
54815;SDS011;40715;55.752;37.884;2022-09-27T08:27:56;0.00;;;0.00;;
54815;SDS011;40715;55.752;37.884;2022-09-27T08:30:24;0.00;;;0.00;;
54815;SDS011;40715;55.752;37.884;2022-09-27T08:32:56;0.00;;;0.00;;
54815;SDS011;40715;55.752;37.884;2022-09-27T08:35:24;0.10;;;0.10;;
54815;SDS011;40715;55.752;37.884;2022-09-27T08:37:54;0.10;;;0.10;;
54815;SDS011;40715;55.752;37.884;2022-09-27T08:40:23;0.17;;;0.17;;
54815;SDS011;40715;55.752;37.884;2022-09-27T08:42:58;0.30;;;0.30;;
54815;SDS011;40715;55.752;37.884;2022-09-27T08:45:46;0.40;;;0.40;;
54815;SDS011;40715;55.752;37.884;2022-09-27T08:48:21;0.60;;;0.60;;
54815;SDS011;40715;55.752;37.884;2022-09-27T08:50:52;0.70;;;0.70;;
54815;SDS011;40715;55.752;37.884;2022-09-27T08:53:29;0.80;;;0.80;;
54815;SDS011;40715;55.752;37.884;2022-09-27T08:56:02;1.30;;;1.30;;
54815;SDS011;40715;55.752;37.884;2022-09-27T08:58:34;1.33;;;1.33;;
54815;SDS011;40715;55.752;37.884;2022-09-27T09:01:03;1.30;;;1.30;;
54815;SDS011;40715;55.752;37.884;2022-09-27T09:03:34;1.13;;;1.13;;
54815;SDS011;40715;55.752;37.884;2022-09-27T09:08:41;0.40;;;0.40;;
54815;SDS011;40715;55.752;37.884;2022-09-27T09:15:26;0.20;;;0.20;;
54815;SDS011;40715;55.752;37.884;2022-09-27T09:30:44;0.00;;;0.00;;
54815;SDS011;40715;55.752;37.884;2022-09-27T09:33:29;0.00;;;0.00;;
54815;SDS011;40715;55.752;37.884;2022-09-27T09:38:49;0.00;;;0.00;;
54815;SDS011;40715;55.752;37.884;2022-09-27T09:47:20;0.00;;;0.00;;
54815;SDS011;40715;55.752;37.884;2022-09-27T09:49:59;0.00;;;0.00;;
54815;SDS011;40715;55.752;37.884;2022-09-27T09:52:36;0.00;;;0.00;;
54815;SDS011;40715;55.752;37.884;2022-09-27T09:57:58;0.00;;;0.00;;
54815;SDS011;40715;55.752;37.884;2022-09-27T10:00:44;0.00;;;0.00;;
54815;SDS011;40715;55.752;37.884;2022-09-27T10:03:16;0.00;;;0.00;;
54815;SDS011;40715;55.752;37.884;2022-09-27T10:05:43;0.00;;;0.00;;
54815;SDS011;40715;55.752;37.884;2022-09-27T10:08:12;0.00;;;0.00;;
54815;SDS011;40715;55.752;37.884;2022-09-27T10:10:44;0.00;;;0.00;;
54815;SDS011;40715;55.752;37.884;2022-09-27T10:13:14;0.00;;;0.00;;
54815;SDS011;40715;55.752;37.884;2022-09-27T10:15:51;0.00;;;0.00;;
54815;SDS011;40715;55.752;37.884;2022-09-27T10:18:24;0.00;;;0.00;;
54815;SDS011;40715;55.752;37.884;2022-09-27T10:20:58;0.00;;;0.00;;
54815;SDS011;40715;55.752;37.884;2022-09-27T10:23:27;0.00;;;0.00;;
54815;SDS011;40715;55.752;37.884;2022-09-27T10:26:01;0.00;;;0.00;;
54815;SDS011;40715;55.752;37.884;2022-09-27T10:28:32;0.00;;;0.00;;
54815;SDS011;40715;55.752;37.884;2022-09-27T10:31:00;0.00;;;0.00;;
54815;SDS011;40715;55.752;37.884;2022-09-27T10:33:37;0.00;;;0.00;;
54815;SDS011;40715;55.752;37.884;2022-09-27T10:36:21;0.00;;;0.00;;
54815;SDS011;40715;55.752;37.884;2022-09-27T10:38:57;0.00;;;0.00;;
54815;SDS011;40715;55.752;37.884;2022-09-27T10:44:28;0.00;;;0.00;;
54815;SDS011;40715;55.752;37.884;2022-09-27T10:46:56;0.00;;;0.00;;
54815;SDS011;40715;55.752;37.884;2022-09-27T10:49:28;0.00;;;0.00;;
54815;SDS011;40715;55.752;37.884;2022-09-27T10:51:59;0.00;;;0.00;;
54815;SDS011;40715;55.752;37.884;2022-09-27T10:54:28;0.00;;;0.00;;
54815;SDS011;40715;55.752;37.884;2022-09-27T10:57:04;0.00;;;0.00;;
54815;SDS011;40715;55.752;37.884;2022-09-27T10:59:41;0.00;;;0.00;;
54815;SDS011;40715;55.752;37.884;2022-09-27T11:02:21;0.00;;;0.00;;
54815;SDS011;40715;55.752;37.884;2022-09-27T11:07:50;0.00;;;0.00;;
54815;SDS011;40715;55.752;37.884;2022-09-27T11:10:21;0.00;;;0.00;;
54815;SDS011;40715;55.752;37.884;2022-09-27T11:13:07;0.00;;;0.00;;
54815;SDS011;40715;55.752;37.884;2022-09-27T11:28:18;0.00;;;0.00;;
54815;SDS011;40715;55.752;37.884;2022-09-27T12:04:30;0.00;;;0.00;;
54815;SDS011;40715;55.752;37.884;2022-09-27T12:09:59;0.00;;;0.00;;
54815;SDS011;40715;55.752;37.884;2022-09-27T12:12:32;0.00;;;0.00;;
54815;SDS011;40715;55.752;37.884;2022-09-27T12:15:04;0.00;;;0.00;;
54815;SDS011;40715;55.752;37.884;2022-09-27T12:17:39;0.00;;;0.00;;
54815;SDS011;40715;55.752;37.884;2022-09-27T12:20:13;0.00;;;0.00;;
54815;SDS011;40715;55.752;37.884;2022-09-27T12:23:00;0.00;;;0.00;;
54815;SDS011;40715;55.752;37.884;2022-09-27T12:25:39;0.00;;;0.00;;
54815;SDS011;40715;55.752;37.884;2022-09-27T12:28:18;0.00;;;0.00;;
54815;SDS011;40715;55.752;37.884;2022-09-27T12:33:50;0.00;;;0.00;;
54815;SDS011;40715;55.752;37.884;2022-09-27T12:36:27;0.00;;;0.00;;
54815;SDS011;40715;55.752;37.884;2022-09-27T12:41:37;0.00;;;0.00;;
54815;SDS011;40715;55.752;37.884;2022-09-27T12:44:10;0.00;;;0.00;;
54815;SDS011;40715;55.752;37.884;2022-09-27T12:49:40;0.00;;;0.00;;
54815;SDS011;40715;55.752;37.884;2022-09-27T12:52:40;0.00;;;0.00;;
54815;SDS011;40715;55.752;37.884;2022-09-27T13:00:41;0.00;;;0.00;;
54815;SDS011;40715;55.752;37.884;2022-09-27T13:09:09;0.00;;;0.00;;
54815;SDS011;40715;55.752;37.884;2022-09-27T13:15:42;0.00;;;0.00;;
54815;SDS011;40715;55.752;37.884;2022-09-27T13:23:48;0.00;;;0.00;;
54815;SDS011;40715;55.752;37.884;2022-09-27T13:31:04;0.00;;;0.00;;
54815;SDS011;40715;55.752;37.884;2022-09-27T13:41:33;0.00;;;0.00;;
54815;SDS011;40715;55.752;37.884;2022-09-27T13:47:02;0.00;;;0.00;;
54815;SDS011;40715;55.752;37.884;2022-09-27T13:49:53;0.00;;;0.00;;
54815;SDS011;40715;55.752;37.884;2022-09-27T13:52:32;0.00;;;0.00;;
54815;SDS011;40715;55.752;37.884;2022-09-27T13:55:04;0.00;;;0.00;;
54815;SDS011;40715;55.752;37.884;2022-09-27T13:57:59;0.00;;;0.00;;
54815;SDS011;40715;55.752;37.884;2022-09-27T14:00:38;0.00;;;0.00;;
54815;SDS011;40715;55.752;37.884;2022-09-27T14:08:26;0.00;;;0.00;;
54815;SDS011;40715;55.752;37.884;2022-09-27T14:10:57;0.00;;;0.00;;
54815;SDS011;40715;55.752;37.884;2022-09-27T14:13:26;0.00;;;0.00;;
54815;SDS011;40715;55.752;37.884;2022-09-27T14:15:58;0.00;;;0.00;;
54815;SDS011;40715;55.752;37.884;2022-09-27T14:18:29;0.00;;;0.00;;
54815;SDS011;40715;55.752;37.884;2022-09-27T14:21:10;0.00;;;0.00;;
54815;SDS011;40715;55.752;37.884;2022-09-27T14:23:43;0.95;;;0.00;;
54815;SDS011;40715;55.752;37.884;2022-09-27T14:26:28;0.00;;;0.00;;
54815;SDS011;40715;55.752;37.884;2022-09-27T14:28:55;0.00;;;0.00;;
54815;SDS011;40715;55.752;37.884;2022-09-27T14:31:23;0.00;;;0.00;;
54815;SDS011;40715;55.752;37.884;2022-09-27T14:33:56;0.00;;;0.00;;
54815;SDS011;40715;55.752;37.884;2022-09-27T14:36:32;0.00;;;0.00;;
54815;SDS011;40715;55.752;37.884;2022-09-27T14:39:21;0.00;;;0.00;;
54815;SDS011;40715;55.752;37.884;2022-09-27T14:41:58;0.00;;;0.00;;
54815;SDS011;40715;55.752;37.884;2022-09-27T14:44:25;0.00;;;0.00;;
54815;SDS011;40715;55.752;37.884;2022-09-27T14:49:46;0.00;;;0.00;;
54815;SDS011;40715;55.752;37.884;2022-09-27T14:52:30;0.00;;;0.00;;
54815;SDS011;40715;55.752;37.884;2022-09-27T14:55:01;0.00;;;0.00;;
54815;SDS011;40715;55.752;37.884;2022-09-27T14:57:33;0.00;;;0.00;;
54815;SDS011;40715;55.752;37.884;2022-09-27T15:00:13;0.00;;;0.00;;
54815;SDS011;40715;55.752;37.884;2022-09-27T15:02:43;0.00;;;0.00;;
54815;SDS011;40715;55.752;37.884;2022-09-27T15:05:14;0.00;;;0.00;;
54815;SDS011;40715;55.752;37.884;2022-09-27T15:07:45;0.00;;;0.00;;
54815;SDS011;40715;55.752;37.884;2022-09-27T15:10:20;0.00;;;0.00;;
54815;SDS011;40715;55.752;37.884;2022-09-27T15:12:49;0.00;;;0.00;;
54815;SDS011;40715;55.752;37.884;2022-09-27T15:15:23;0.00;;;0.00;;
54815;SDS011;40715;55.752;37.884;2022-09-27T15:17:59;0.00;;;0.00;;
54815;SDS011;40715;55.752;37.884;2022-09-27T15:23:01;0.00;;;0.00;;
54815;SDS011;40715;55.752;37.884;2022-09-27T15:26:16;0.00;;;0.00;;
54815;SDS011;40715;55.752;37.884;2022-09-27T15:28:29;0.00;;;0.00;;
54815;SDS011;40715;55.752;37.884;2022-09-27T15:30:57;0.00;;;0.00;;
54815;SDS011;40715;55.752;37.884;2022-09-27T15:33:25;0.05;;;0.00;;
54815;SDS011;40715;55.752;37.884;2022-09-27T15:35:57;0.00;;;0.00;;
54815;SDS011;40715;55.752;37.884;2022-09-27T15:38:32;0.00;;;0.00;;
54815;SDS011;40715;55.752;37.884;2022-09-27T15:41:04;0.30;;;0.00;;
54815;SDS011;40715;55.752;37.884;2022-09-27T15:43:41;0.00;;;0.00;;
54815;SDS011;40715;55.752;37.884;2022-09-27T15:51:43;0.00;;;0.00;;
54815;SDS011;40715;55.752;37.884;2022-09-27T15:54:21;0.00;;;0.00;;
54815;SDS011;40715;55.752;37.884;2022-09-27T15:56:51;0.00;;;0.00;;
54815;SDS011;40715;55.752;37.884;2022-09-27T15:59:22;0.00;;;0.00;;
54815;SDS011;40715;55.752;37.884;2022-09-27T16:01:55;0.00;;;0.00;;
54815;SDS011;40715;55.752;37.884;2022-09-27T16:04:24;0.00;;;0.00;;
54815;SDS011;40715;55.752;37.884;2022-09-27T16:06:52;0.00;;;0.00;;
54815;SDS011;40715;55.752;37.884;2022-09-27T16:09:20;0.00;;;0.00;;
54815;SDS011;40715;55.752;37.884;2022-09-27T16:11:47;0.00;;;0.00;;
54815;SDS011;40715;55.752;37.884;2022-09-27T16:14:15;0.00;;;0.00;;
54815;SDS011;40715;55.752;37.884;2022-09-27T16:16:45;0.00;;;0.00;;
54815;SDS011;40715;55.752;37.884;2022-09-27T16:19:15;0.00;;;0.00;;
54815;SDS011;40715;55.752;37.884;2022-09-27T16:21:43;0.00;;;0.00;;
54815;SDS011;40715;55.752;37.884;2022-09-27T16:24:12;0.00;;;0.00;;
54815;SDS011;40715;55.752;37.884;2022-09-27T16:26:40;0.00;;;0.00;;
54815;SDS011;40715;55.752;37.884;2022-09-27T16:29:13;0.00;;;0.00;;
54815;SDS011;40715;55.752;37.884;2022-09-27T16:31:41;0.00;;;0.00;;
54815;SDS011;40715;55.752;37.884;2022-09-27T16:34:10;0.00;;;0.00;;
54815;SDS011;40715;55.752;37.884;2022-09-27T16:36:37;0.00;;;0.00;;
54815;SDS011;40715;55.752;37.884;2022-09-27T16:39:05;0.00;;;0.00;;
54815;SDS011;40715;55.752;37.884;2022-09-27T16:41:33;0.00;;;0.00;;
54815;SDS011;40715;55.752;37.884;2022-09-27T16:44:05;0.00;;;0.00;;
54815;SDS011;40715;55.752;37.884;2022-09-27T16:46:40;0.00;;;0.00;;
54815;SDS011;40715;55.752;37.884;2022-09-27T16:49:08;0.00;;;0.00;;
54815;SDS011;40715;55.752;37.884;2022-09-27T16:51:55;0.00;;;0.00;;
54815;SDS011;40715;55.752;37.884;2022-09-27T16:54:28;0.00;;;0.00;;
54815;SDS011;40715;55.752;37.884;2022-09-27T16:56:56;0.00;;;0.00;;
54815;SDS011;40715;55.752;37.884;2022-09-27T16:59:24;0.00;;;0.00;;
54815;SDS011;40715;55.752;37.884;2022-09-27T17:01:51;0.00;;;0.00;;
54815;SDS011;40715;55.752;37.884;2022-09-27T17:04:23;0.00;;;0.00;;
54815;SDS011;40715;55.752;37.884;2022-09-27T17:06:51;0.00;;;0.00;;
54815;SDS011;40715;55.752;37.884;2022-09-27T17:09:18;0.00;;;0.00;;
54815;SDS011;40715;55.752;37.884;2022-09-27T17:11:46;0.00;;;0.00;;
54815;SDS011;40715;55.752;37.884;2022-09-27T17:14:13;0.00;;;0.00;;
54815;SDS011;40715;55.752;37.884;2022-09-27T17:16:42;0.00;;;0.00;;
54815;SDS011;40715;55.752;37.884;2022-09-27T17:19:11;0.00;;;0.00;;
54815;SDS011;40715;55.752;37.884;2022-09-27T17:21:41;0.00;;;0.00;;
54815;SDS011;40715;55.752;37.884;2022-09-27T17:24:11;0.00;;;0.00;;
54815;SDS011;40715;55.752;37.884;2022-09-27T17:26:39;0.00;;;0.00;;
54815;SDS011;40715;55.752;37.884;2022-09-27T17:29:06;0.00;;;0.00;;
54815;SDS011;40715;55.752;37.884;2022-09-27T17:31:36;0.00;;;0.00;;
54815;SDS011;40715;55.752;37.884;2022-09-27T17:34:06;0.00;;;0.00;;
54815;SDS011;40715;55.752;37.884;2022-09-27T17:36:38;0.00;;;0.00;;
54815;SDS011;40715;55.752;37.884;2022-09-27T17:39:11;0.00;;;0.00;;
54815;SDS011;40715;55.752;37.884;2022-09-27T17:41:39;0.00;;;0.00;;
54815;SDS011;40715;55.752;37.884;2022-09-27T17:44:06;0.00;;;0.00;;
54815;SDS011;40715;55.752;37.884;2022-09-27T17:46:34;0.00;;;0.00;;
54815;SDS011;40715;55.752;37.884;2022-09-27T17:49:02;0.00;;;0.00;;
54815;SDS011;40715;55.752;37.884;2022-09-27T17:51:49;0.00;;;0.00;;
54815;SDS011;40715;55.752;37.884;2022-09-27T17:54:18;0.00;;;0.00;;
54815;SDS011;40715;55.752;37.884;2022-09-27T17:56:48;0.00;;;0.00;;
54815;SDS011;40715;55.752;37.884;2022-09-27T17:59:33;0.00;;;0.00;;
54815;SDS011;40715;55.752;37.884;2022-09-27T18:02:00;0.00;;;0.00;;
54815;SDS011;40715;55.752;37.884;2022-09-27T18:04:27;0.00;;;0.00;;
54815;SDS011;40715;55.752;37.884;2022-09-27T18:06:54;0.00;;;0.00;;
54815;SDS011;40715;55.752;37.884;2022-09-27T18:09:22;0.00;;;0.00;;
54815;SDS011;40715;55.752;37.884;2022-09-27T18:11:49;0.00;;;0.00;;
54815;SDS011;40715;55.752;37.884;2022-09-27T18:14:16;0.00;;;0.00;;
54815;SDS011;40715;55.752;37.884;2022-09-27T18:16:44;0.00;;;0.00;;